createdAt,value
2023-01-08T00:02:03.518Z,0.50
2023-01-08T00:04:30.080Z,0.80
2023-01-08T00:06:56.722Z,0.50
2023-01-08T00:09:23.288Z,0.50
2023-01-08T00:11:49.967Z,0.60
2023-01-08T00:14:16.552Z,0.50
2023-01-08T00:16:43.137Z,0.60
2023-01-08T00:19:11.669Z,0.57
2023-01-08T00:21:38.434Z,0.63
2023-01-08T00:24:05.376Z,0.60
2023-01-08T00:26:32.218Z,0.50
2023-01-08T00:28:58.977Z,0.70
2023-01-08T00:31:25.699Z,0.50
2023-01-08T00:33:52.312Z,0.80
2023-01-08T00:36:19.512Z,0.60
2023-01-08T00:38:46.843Z,0.50
2023-01-08T00:41:14.343Z,0.50
2023-01-08T00:43:41.032Z,0.65
2023-01-08T00:46:08.004Z,0.50
2023-01-08T00:48:38.663Z,0.50
2023-01-08T00:51:07.109Z,0.55
2023-01-08T00:53:33.744Z,0.60
2023-01-08T00:56:04.899Z,0.60
2023-01-08T00:58:31.732Z,0.70
2023-01-08T01:00:58.752Z,0.70
2023-01-08T01:03:25.351Z,0.77
2023-01-08T01:06:03.602Z,0.70
2023-01-08T01:08:30.377Z,0.68
2023-01-08T01:10:56.967Z,0.50
2023-01-08T01:13:23.544Z,0.60
2023-01-08T01:16:00.142Z,0.50
2023-01-08T01:18:27.100Z,0.60
2023-01-08T01:20:53.701Z,0.50
2023-01-08T01:23:20.513Z,0.40
2023-01-08T01:25:47.146Z,0.60
2023-01-08T01:28:13.776Z,0.60
2023-01-08T01:30:40.403Z,0.47
2023-01-08T01:33:07.097Z,0.60
2023-01-08T01:35:33.702Z,0.40
2023-01-08T01:38:00.249Z,0.65
2023-01-08T01:40:26.857Z,0.60
2023-01-08T01:42:53.449Z,0.70
2023-01-08T01:45:22.641Z,0.70
2023-01-08T01:47:59.200Z,0.50
2023-01-08T01:50:49.546Z,0.60
2023-01-08T01:53:30.339Z,0.45
2023-01-08T01:55:57.448Z,0.70
2023-01-08T01:58:26.914Z,0.55
2023-01-08T02:00:54.705Z,1.00
2023-01-08T02:03:22.947Z,0.60
2023-01-08T02:06:20.510Z,0.60
2023-01-08T02:09:08.408Z,0.50
2023-01-08T02:12:15.385Z,0.60
2023-01-08T02:15:14.556Z,0.60
2023-01-08T02:18:15.131Z,0.60
2023-01-08T02:20:45.149Z,0.60
2023-01-08T02:23:39.328Z,0.45
2023-01-08T02:26:17.923Z,0.63
2023-01-08T02:29:09.749Z,0.60
2023-01-08T02:31:39.001Z,0.60
2023-01-08T02:34:05.838Z,0.50
2023-01-08T02:36:44.393Z,0.80
2023-01-08T02:39:17.180Z,0.50
2023-01-08T02:41:49.188Z,0.60
2023-01-08T02:44:21.038Z,0.50
2023-01-08T02:46:50.997Z,0.60
2023-01-08T02:49:19.945Z,0.73
2023-01-08T02:51:50.888Z,0.60
2023-01-08T02:54:20.321Z,0.63
2023-01-08T02:56:50.448Z,0.60
2023-01-08T02:59:18.536Z,0.60
2023-01-08T03:01:45.816Z,0.60
2023-01-08T03:04:17.114Z,0.60
2023-01-08T03:06:44.289Z,0.67
2023-01-08T03:09:11.306Z,0.50
2023-01-08T03:11:56.160Z,0.60
2023-01-08T03:14:29.514Z,0.82
2023-01-08T03:17:05.502Z,0.50
2023-01-08T03:19:41.356Z,0.60
2023-01-08T03:22:10.927Z,0.70
2023-01-08T03:24:39.132Z,0.50
2023-01-08T03:27:09.602Z,0.40
2023-01-08T03:29:36.760Z,0.60
2023-01-08T03:32:06.187Z,0.53
2023-01-08T03:34:33.549Z,0.50
2023-01-08T03:37:03.184Z,0.50
2023-01-08T03:39:33.216Z,0.65
2023-01-08T03:42:02.966Z,0.68
2023-01-08T03:44:29.522Z,0.70
2023-01-08T03:46:57.000Z,0.82
2023-01-08T03:49:25.138Z,0.80
2023-01-08T03:51:51.697Z,0.70
2023-01-08T03:54:21.084Z,0.70
2023-01-08T03:56:47.702Z,0.80
2023-01-08T03:59:14.935Z,0.70
2023-01-08T04:01:41.878Z,0.60
2023-01-08T04:04:09.170Z,0.88
2023-01-08T04:06:35.831Z,0.60
2023-01-08T04:09:03.084Z,0.70
2023-01-08T04:11:29.816Z,0.60
2023-01-08T04:13:56.442Z,0.65
2023-01-08T04:16:23.332Z,0.70
2023-01-08T04:18:49.927Z,0.85
2023-01-08T04:21:16.670Z,0.80
2023-01-08T04:23:43.291Z,0.80
2023-01-08T04:26:09.945Z,0.68
2023-01-08T04:28:36.577Z,0.80
2023-01-08T04:31:08.582Z,0.70
2023-01-08T04:33:35.696Z,0.70
2023-01-08T04:36:03.329Z,0.50
2023-01-08T04:38:29.904Z,1.00
2023-01-08T04:41:00.822Z,0.50
2023-01-08T04:43:28.119Z,0.80
2023-01-08T04:46:02.124Z,0.67
2023-01-08T04:48:29.487Z,0.80
2023-01-08T04:50:58.658Z,0.75
2023-01-08T04:53:25.237Z,0.70
2023-01-08T04:55:51.991Z,0.70
2023-01-08T04:58:18.548Z,0.70
2023-01-08T05:00:45.231Z,0.70
2023-01-08T05:03:11.807Z,0.70
2023-01-08T05:05:38.635Z,0.70
2023-01-08T05:08:05.249Z,0.60
2023-01-08T05:10:31.850Z,0.67
2023-01-08T05:13:00.794Z,0.50
2023-01-08T05:15:27.653Z,0.77
2023-01-08T05:18:05.600Z,0.80
2023-01-08T05:20:33.257Z,0.75
2023-01-08T05:22:59.833Z,0.80
2023-01-08T05:25:26.521Z,0.60
2023-01-08T05:27:53.623Z,0.65
2023-01-08T05:30:20.248Z,0.70
2023-01-08T05:32:46.850Z,0.70
2023-01-08T05:35:13.520Z,0.50
2023-01-08T05:37:40.296Z,0.60
2023-01-08T05:40:07.260Z,0.75
2023-01-08T05:42:35.349Z,0.80
2023-01-08T05:45:05.684Z,0.52
2023-01-08T05:47:32.984Z,0.50
2023-01-08T05:49:59.747Z,0.60
2023-01-08T05:52:26.460Z,0.80
2023-01-08T05:54:53.113Z,0.65
2023-01-08T05:57:19.712Z,0.77
2023-01-08T05:59:46.304Z,0.60
2023-01-08T06:02:12.948Z,0.55
2023-01-08T06:04:39.818Z,0.70
2023-01-08T06:07:06.509Z,0.60
2023-01-08T06:09:33.075Z,0.80
2023-01-08T06:11:59.695Z,0.83
2023-01-08T06:14:26.309Z,0.73
2023-01-08T06:16:52.902Z,0.60
2023-01-08T06:19:19.526Z,0.80
2023-01-08T06:21:46.091Z,0.68
2023-01-08T06:24:12.673Z,0.70
2023-01-08T06:26:39.314Z,0.80
2023-01-08T06:29:06.295Z,0.70
2023-01-08T06:31:32.967Z,0.70
2023-01-08T06:33:59.614Z,0.60
2023-01-08T06:36:26.213Z,0.73
2023-01-08T06:38:53.339Z,0.90
2023-01-08T06:41:19.909Z,0.60
2023-01-08T06:43:46.487Z,0.70
2023-01-08T06:46:13.296Z,0.70
2023-01-08T06:48:39.966Z,0.70
2023-01-08T06:51:06.777Z,0.50
2023-01-08T06:53:33.840Z,0.80
2023-01-08T06:56:00.425Z,0.60
2023-01-08T06:58:27.837Z,0.80
2023-01-08T07:00:54.446Z,0.70
2023-01-08T07:03:21.071Z,0.80
2023-01-08T07:05:47.770Z,0.63
2023-01-08T07:08:15.217Z,0.70
2023-01-08T07:10:42.813Z,0.73
2023-01-08T07:13:09.377Z,0.90
2023-01-08T07:15:37.303Z,0.70
2023-01-08T07:18:05.984Z,0.60
2023-01-08T07:20:33.715Z,0.70
2023-01-08T07:23:08.187Z,0.50
2023-01-08T07:25:34.749Z,0.67
2023-01-08T07:28:02.036Z,0.75
2023-01-08T07:30:30.608Z,0.70
2023-01-08T07:33:01.347Z,0.75
2023-01-08T07:35:28.921Z,0.95
2023-01-08T07:37:55.777Z,1.07
2023-01-08T07:40:22.556Z,0.77
2023-01-08T07:42:49.122Z,0.85
2023-01-08T07:45:15.756Z,0.77
2023-01-08T07:47:42.334Z,0.80
2023-01-08T07:50:09.143Z,1.00
2023-01-08T07:52:35.711Z,0.80
2023-01-08T07:55:02.274Z,0.70
2023-01-08T07:57:29.756Z,0.88
2023-01-08T07:59:56.350Z,0.60
2023-01-08T08:02:23.036Z,0.77
2023-01-08T08:04:49.850Z,0.55
2023-01-08T08:07:16.408Z,0.85
2023-01-08T08:09:43.007Z,0.50
2023-01-08T08:12:09.595Z,0.80
2023-01-08T08:14:36.244Z,0.50
2023-01-08T08:17:02.815Z,0.70
2023-01-08T08:19:29.366Z,0.60
2023-01-08T08:21:55.964Z,0.85
2023-01-08T08:24:22.524Z,0.80
2023-01-08T08:26:49.957Z,0.90
2023-01-08T08:29:16.515Z,0.60
2023-01-08T08:31:43.212Z,0.70
2023-01-08T08:34:09.813Z,0.90
2023-01-08T08:36:36.395Z,0.90
2023-01-08T08:39:03.852Z,0.90
2023-01-08T08:41:30.544Z,0.63
2023-01-08T08:43:57.103Z,0.70
2023-01-08T08:46:25.445Z,0.50
2023-01-08T08:48:52.131Z,0.60
2023-01-08T08:51:18.680Z,0.70
2023-01-08T08:53:45.255Z,0.75
2023-01-08T08:56:11.832Z,0.93
2023-01-08T08:58:38.434Z,0.73
2023-01-08T09:01:05.200Z,0.65
2023-01-08T09:03:31.924Z,0.90
2023-01-08T09:05:59.843Z,0.82
2023-01-08T09:08:26.613Z,0.77
2023-01-08T09:10:53.195Z,0.88
2023-01-08T09:13:19.805Z,0.70
2023-01-08T09:15:46.437Z,0.70
2023-01-08T09:18:15.092Z,0.68
2023-01-08T09:20:42.493Z,0.60
2023-01-08T09:23:09.801Z,0.77
2023-01-08T09:25:36.417Z,0.70
2023-01-08T09:28:05.953Z,1.00
2023-01-08T09:30:33.081Z,0.70
2023-01-08T09:33:02.659Z,0.70
2023-01-08T09:35:30.561Z,0.70
2023-01-08T09:37:57.396Z,0.80
2023-01-08T09:40:27.535Z,0.80
2023-01-08T09:42:56.351Z,0.70
2023-01-08T09:45:29.058Z,0.60
2023-01-08T09:47:58.389Z,0.75
2023-01-08T09:50:26.990Z,0.63
2023-01-08T09:52:53.932Z,0.77
2023-01-08T09:55:20.879Z,0.60
2023-01-08T09:57:48.209Z,0.90
2023-01-08T10:00:26.172Z,1.00
2023-01-08T10:02:54.174Z,0.60
2023-01-08T10:05:20.888Z,0.80
2023-01-08T10:07:47.786Z,0.80
2023-01-08T10:10:22.675Z,0.65
2023-01-08T10:12:50.077Z,0.80
2023-01-08T10:15:18.717Z,0.90
2023-01-08T10:18:04.714Z,1.00
2023-01-08T10:20:35.121Z,0.95
2023-01-08T10:23:19.299Z,0.77
2023-01-08T10:26:00.906Z,0.80
2023-01-08T10:28:32.522Z,1.00
2023-01-08T10:31:08.898Z,0.50
2023-01-08T10:33:46.941Z,0.65
2023-01-08T10:36:16.251Z,0.80
2023-01-08T10:38:51.166Z,0.70
2023-01-08T10:41:18.423Z,0.90
2023-01-08T10:43:56.027Z,0.93
2023-01-08T10:46:23.801Z,0.90
2023-01-08T10:48:52.666Z,0.80
2023-01-08T10:51:26.087Z,0.70
2023-01-08T10:53:54.322Z,0.77
2023-01-08T10:56:26.334Z,0.90
2023-01-08T10:58:53.428Z,0.77
2023-01-08T11:01:28.925Z,0.90
2023-01-08T11:04:02.112Z,0.80
2023-01-08T11:06:41.322Z,0.77
2023-01-08T11:09:21.746Z,0.90
2023-01-08T11:11:48.624Z,0.85
2023-01-08T11:14:26.958Z,0.95
2023-01-08T11:16:54.004Z,0.50
2023-01-08T11:19:25.899Z,0.98
2023-01-08T11:21:57.729Z,0.60
2023-01-08T11:24:33.098Z,0.50
2023-01-08T11:27:10.120Z,0.77
2023-01-08T11:29:38.962Z,0.70
2023-01-08T11:32:25.689Z,0.80
2023-01-08T11:35:03.525Z,0.80
2023-01-08T11:37:37.514Z,1.00
2023-01-08T11:40:15.095Z,0.70
2023-01-08T11:42:57.204Z,0.80
2023-01-08T11:45:51.644Z,0.90
2023-01-08T11:48:39.868Z,0.87
2023-01-08T11:51:06.402Z,0.80
2023-01-08T11:53:44.037Z,0.95
2023-01-08T11:56:10.541Z,0.80
2023-01-08T11:59:24.618Z,0.77
2023-01-08T12:01:55.595Z,0.70
2023-01-08T12:04:39.357Z,0.50
2023-01-08T12:07:11.937Z,0.70
2023-01-08T12:10:34.087Z,0.52
2023-01-08T12:13:37.684Z,0.80
2023-01-08T12:16:18.910Z,0.83
2023-01-08T12:18:57.420Z,0.70
2023-01-08T12:21:33.734Z,1.00
2023-01-08T12:24:25.091Z,0.93
2023-01-08T12:27:55.318Z,0.98
2023-01-08T12:30:52.073Z,1.17
2023-01-08T12:33:33.930Z,0.80
2023-01-08T12:36:03.932Z,0.90
2023-01-08T12:38:40.416Z,1.00
2023-01-08T12:41:12.434Z,0.82
2023-01-08T12:44:01.437Z,0.90
2023-01-08T12:46:33.835Z,0.80
2023-01-08T12:49:01.107Z,0.75
2023-01-08T12:51:50.490Z,0.90
2023-01-08T12:54:26.491Z,0.90
2023-01-08T12:57:02.908Z,0.87
2023-01-08T12:59:44.603Z,0.80
2023-01-08T13:02:39.168Z,0.70
2023-01-08T13:05:31.133Z,0.85
2023-01-08T13:07:59.847Z,1.00
2023-01-08T13:10:36.350Z,0.90
2023-01-08T13:13:03.995Z,0.85
2023-01-08T13:15:31.936Z,0.88
2023-01-08T13:18:05.273Z,0.60
2023-01-08T13:20:32.446Z,0.95
2023-01-08T13:23:08.292Z,0.80
2023-01-08T13:25:37.079Z,0.60
2023-01-08T13:28:31.648Z,0.80
2023-01-08T13:31:10.781Z,0.47
2023-01-08T13:33:40.356Z,0.80
2023-01-08T13:36:21.065Z,0.90
2023-01-08T13:39:19.511Z,0.73
2023-01-08T13:41:58.224Z,0.90
2023-01-08T13:44:34.488Z,0.80
2023-01-08T13:47:03.271Z,1.00
2023-01-08T13:49:42.339Z,0.63
2023-01-08T13:52:31.868Z,1.05
2023-01-08T13:54:59.583Z,0.65
2023-01-08T13:57:26.154Z,0.90
2023-01-08T13:59:57.566Z,0.88
2023-01-08T14:02:42.647Z,0.83
2023-01-08T14:05:45.057Z,0.80
2023-01-08T14:08:22.500Z,0.70
2023-01-08T14:10:49.076Z,0.80
2023-01-08T14:13:16.410Z,0.80
2023-01-08T14:15:43.306Z,1.00
2023-01-08T14:18:13.858Z,0.80
2023-01-08T14:20:42.197Z,0.75
2023-01-08T14:23:11.930Z,1.00
2023-01-08T14:25:40.531Z,0.90
2023-01-08T14:28:07.248Z,0.73
2023-01-08T14:30:33.861Z,0.70
2023-01-08T14:33:00.989Z,0.80
2023-01-08T14:35:33.551Z,0.85
2023-01-08T14:38:01.641Z,0.80
2023-01-08T14:40:33.544Z,0.90
2023-01-08T14:43:07.857Z,0.90
2023-01-08T14:45:35.258Z,0.73
2023-01-08T14:48:31.454Z,0.80
2023-01-08T14:51:04.765Z,0.80
2023-01-08T14:53:33.264Z,0.70
2023-01-08T14:56:00.741Z,0.82
2023-01-08T14:58:30.925Z,0.82
2023-01-08T15:01:00.388Z,0.80
2023-01-08T15:03:31.351Z,0.60
2023-01-08T15:05:57.933Z,0.80
2023-01-08T15:08:51.699Z,0.90
2023-01-08T15:11:18.204Z,0.80
2023-01-08T15:13:48.934Z,0.70
2023-01-08T15:16:27.915Z,0.95
2023-01-08T15:19:14.356Z,0.80
2023-01-08T15:21:52.013Z,0.80
2023-01-08T15:24:24.910Z,0.70
2023-01-08T15:26:52.457Z,1.13
2023-01-08T15:29:23.986Z,0.80
2023-01-08T15:31:50.619Z,0.80
2023-01-08T15:34:20.614Z,1.00
2023-01-08T15:36:47.909Z,1.10
2023-01-08T15:39:14.496Z,0.82
2023-01-08T15:41:59.554Z,0.90
2023-01-08T15:44:26.211Z,0.87
2023-01-08T15:46:53.374Z,0.80
2023-01-08T15:49:20.207Z,0.70
2023-01-08T15:51:48.243Z,1.00
2023-01-08T15:54:15.445Z,0.90
2023-01-08T15:56:42.249Z,1.20
2023-01-08T15:59:08.900Z,1.00
2023-01-08T16:01:35.647Z,0.88
2023-01-08T16:04:02.287Z,0.80
2023-01-08T16:06:28.840Z,0.90
2023-01-08T16:08:59.826Z,0.70
2023-01-08T16:11:26.965Z,0.90
2023-01-08T16:13:53.584Z,0.90
2023-01-08T16:16:21.433Z,0.93
2023-01-08T16:18:48.084Z,1.00
2023-01-08T16:21:14.676Z,0.83
2023-01-08T16:23:41.824Z,0.82
2023-01-08T16:26:10.659Z,0.90
2023-01-08T16:28:37.401Z,0.88
2023-01-08T16:31:04.631Z,0.80
2023-01-08T16:33:31.408Z,0.60
2023-01-08T16:35:59.248Z,0.80
2023-01-08T16:38:26.202Z,0.90
2023-01-08T16:40:53.615Z,0.82
2023-01-08T16:43:20.216Z,0.82
2023-01-08T16:45:47.624Z,0.87
2023-01-08T16:48:14.623Z,0.90
2023-01-08T16:50:42.359Z,0.80
2023-01-08T16:53:09.035Z,1.00
2023-01-08T16:55:41.398Z,0.88
2023-01-08T16:58:08.723Z,0.80
2023-01-08T17:00:36.846Z,0.60
2023-01-08T17:03:05.300Z,0.85
2023-01-08T17:05:32.187Z,0.88
2023-01-08T17:07:59.165Z,0.90
2023-01-08T17:10:26.706Z,0.90
2023-01-08T17:12:53.619Z,1.00
2023-01-08T17:15:20.264Z,0.90
2023-01-08T17:17:46.950Z,0.70
2023-01-08T17:20:13.844Z,0.77
2023-01-08T17:22:40.476Z,0.60
2023-01-08T17:25:07.448Z,0.93
2023-01-08T17:27:37.385Z,1.00
2023-01-08T17:30:04.528Z,1.10
2023-01-08T17:32:31.224Z,0.77
2023-01-08T17:34:58.105Z,1.00
2023-01-08T17:37:24.695Z,0.90
2023-01-08T17:39:51.426Z,0.90
2023-01-08T17:42:27.813Z,1.15
2023-01-08T17:44:56.459Z,1.00
2023-01-08T17:47:24.346Z,0.80
2023-01-08T17:49:55.569Z,0.90
2023-01-08T17:52:24.150Z,0.90
2023-01-08T17:54:53.669Z,1.10
2023-01-08T17:57:21.045Z,0.80
2023-01-08T17:59:48.591Z,0.83
2023-01-08T18:02:16.758Z,1.00
2023-01-08T18:04:44.029Z,0.85
2023-01-08T18:07:10.914Z,1.30
2023-01-08T18:09:37.694Z,0.90
2023-01-08T18:12:04.518Z,1.00
2023-01-08T18:14:31.156Z,0.80
2023-01-08T18:16:57.896Z,0.70
2023-01-08T18:19:26.168Z,0.80
2023-01-08T18:21:52.888Z,0.85
2023-01-08T18:24:19.544Z,0.80
2023-01-08T18:26:46.647Z,1.10
2023-01-08T18:29:13.514Z,0.85
2023-01-08T18:31:40.682Z,0.80
2023-01-08T18:34:08.818Z,0.80
2023-01-08T18:36:35.966Z,0.90
2023-01-08T18:39:03.117Z,1.00
2023-01-08T18:41:48.587Z,0.90
2023-01-08T18:44:15.285Z,0.80
2023-01-08T18:46:41.833Z,0.90
2023-01-08T18:49:09.203Z,0.80
2023-01-08T18:51:35.818Z,0.80
2023-01-08T18:54:04.358Z,0.90
2023-01-08T18:56:33.374Z,0.80
2023-01-08T18:59:00.115Z,0.80
2023-01-08T19:01:27.360Z,1.00
2023-01-08T19:03:55.676Z,0.88
2023-01-08T19:06:23.186Z,0.98
2023-01-08T19:08:49.779Z,1.00
2023-01-08T19:11:16.915Z,1.10
2023-01-08T19:13:43.606Z,1.07
2023-01-08T19:16:12.926Z,0.93
2023-01-08T19:18:40.169Z,0.90
2023-01-08T19:21:08.759Z,1.02
2023-01-08T19:23:35.403Z,1.05
2023-01-08T19:26:06.631Z,0.90
2023-01-08T19:28:33.330Z,1.10
2023-01-08T19:31:00.397Z,0.80
2023-01-08T19:33:27.195Z,0.80
2023-01-08T19:35:53.864Z,1.10
2023-01-08T19:38:20.626Z,1.00
2023-01-08T19:40:47.180Z,1.10
2023-01-08T19:43:32.663Z,0.85
2023-01-08T19:46:06.094Z,1.20
2023-01-08T19:48:33.000Z,1.05
2023-01-08T19:51:00.119Z,1.30
2023-01-08T19:53:26.736Z,1.00
2023-01-08T19:55:53.289Z,0.80
2023-01-08T19:58:20.488Z,1.10
2023-01-08T20:00:47.093Z,1.10
2023-01-08T20:03:13.751Z,0.93
2023-01-08T20:05:41.632Z,1.17
2023-01-08T20:08:08.167Z,1.10
2023-01-08T20:10:34.710Z,1.00
2023-01-08T20:13:01.274Z,0.90
2023-01-08T20:15:28.998Z,1.00
2023-01-08T20:17:55.672Z,0.77
2023-01-08T20:20:22.244Z,1.02
2023-01-08T20:22:48.783Z,1.02
2023-01-08T20:25:15.515Z,1.00
2023-01-08T20:27:42.094Z,1.13
2023-01-08T20:30:10.384Z,1.00
2023-01-08T20:32:37.198Z,0.95
2023-01-08T20:35:04.766Z,1.05
2023-01-08T20:37:31.503Z,0.93
2023-01-08T20:39:58.046Z,1.20
2023-01-08T20:42:33.460Z,1.08
2023-01-08T20:45:00.871Z,1.10
2023-01-08T20:47:27.426Z,1.30
2023-01-08T20:49:53.991Z,0.98
2023-01-08T20:52:20.684Z,1.10
2023-01-08T20:54:47.263Z,1.05
2023-01-08T20:57:13.835Z,0.90
2023-01-08T20:59:40.393Z,1.23
2023-01-08T21:02:07.094Z,1.45
2023-01-08T21:04:34.291Z,1.30
2023-01-08T21:07:00.906Z,1.20
2023-01-08T21:09:28.409Z,0.98
2023-01-08T21:11:54.996Z,1.05
2023-01-08T21:14:21.580Z,1.05
2023-01-08T21:16:48.252Z,1.17
2023-01-08T21:19:15.445Z,0.93
2023-01-08T21:21:42.177Z,1.10
2023-01-08T21:24:11.204Z,1.20
2023-01-08T21:26:39.055Z,0.98
2023-01-08T21:29:07.108Z,1.37
2023-01-08T21:31:34.642Z,1.00
2023-01-08T21:34:01.983Z,1.10
2023-01-08T21:36:30.178Z,1.10
2023-01-08T21:38:57.922Z,1.27
2023-01-08T21:41:44.173Z,1.40
2023-01-08T21:44:37.154Z,1.00
2023-01-08T21:47:05.730Z,1.33
2023-01-08T21:49:32.446Z,1.10
2023-01-08T21:52:17.593Z,1.08
2023-01-08T21:54:44.157Z,1.13
2023-01-08T21:57:10.710Z,1.33
2023-01-08T21:59:37.433Z,1.20
2023-01-08T22:02:05.323Z,1.48
2023-01-08T22:04:32.398Z,1.10
2023-01-08T22:06:59.035Z,1.13
2023-01-08T22:09:25.613Z,1.48
2023-01-08T22:11:52.179Z,0.90
2023-01-08T22:14:18.833Z,1.15
2023-01-08T22:16:45.428Z,1.10
2023-01-08T22:19:12.117Z,1.10
2023-01-08T22:21:38.998Z,0.80
2023-01-08T22:24:06.752Z,1.17
2023-01-08T22:26:35.211Z,0.93
2023-01-08T22:29:03.020Z,1.08
2023-01-08T22:31:29.689Z,1.20
2023-01-08T22:33:58.254Z,1.00
2023-01-08T22:36:25.091Z,1.25
2023-01-08T22:38:51.787Z,1.20
2023-01-08T22:41:21.209Z,1.58
2023-01-08T22:43:48.181Z,1.10
2023-01-08T22:46:16.306Z,0.90
2023-01-08T22:48:43.627Z,1.20
2023-01-08T22:51:10.975Z,1.30
2023-01-08T22:53:38.080Z,1.00
2023-01-08T22:56:12.148Z,1.40
2023-01-08T22:58:40.630Z,1.30
2023-01-08T23:01:11.733Z,1.00
2023-01-08T23:03:42.923Z,1.55
2023-01-08T23:06:13.790Z,1.23
2023-01-08T23:08:41.684Z,1.10
2023-01-08T23:11:10.415Z,1.20
2023-01-08T23:13:37.597Z,1.20
2023-01-08T23:16:05.733Z,1.33
2023-01-08T23:18:32.296Z,1.40
2023-01-08T23:21:11.350Z,1.30
2023-01-08T23:23:38.423Z,1.13
2023-01-08T23:26:10.053Z,1.10
2023-01-08T23:28:36.797Z,1.05
2023-01-08T23:31:10.977Z,1.10
2023-01-08T23:33:37.761Z,1.00
2023-01-08T23:36:05.114Z,1.10
2023-01-08T23:38:31.771Z,1.15
2023-01-08T23:40:58.663Z,1.25
2023-01-08T23:43:25.433Z,1.35
2023-01-08T23:45:52.029Z,1.27
2023-01-08T23:48:18.589Z,1.30
2023-01-08T23:50:45.158Z,1.08
2023-01-08T23:53:11.703Z,1.00
2023-01-08T23:55:38.241Z,1.30
2023-01-08T23:58:04.818Z,1.33
